createdAt,value
2018-09-29T00:00:33.239Z,14.55
2018-09-29T00:01:33.576Z,14.56
2018-09-29T00:02:34.361Z,14.63
2018-09-29T00:03:35.596Z,14.74
2018-09-29T00:04:36.938Z,14.68
2018-09-29T00:05:37.446Z,14.79
2018-09-29T00:06:38.690Z,14.74
2018-09-29T00:07:39.750Z,14.82
2018-09-29T00:08:40.256Z,14.85
2018-09-29T00:09:40.765Z,14.85
2018-09-29T00:10:41.272Z,14.9
2018-09-29T00:11:43.061Z,14.79
2018-09-29T00:12:42.848Z,14.79
2018-09-29T00:13:44.184Z,14.79
2018-09-29T00:14:44.995Z,14.78
2018-09-29T00:15:45.505Z,14.71
2018-09-29T00:16:47.291Z,14.68
2018-09-29T00:17:48.076Z,14.73
2018-09-29T00:18:48.852Z,14.82
2018-09-29T00:19:49.633Z,14.68
2018-09-29T00:20:49.972Z,14.58
2018-09-29T00:21:50.757Z,14.43
2018-09-29T00:22:51.543Z,14.55
2018-09-29T00:23:52.054Z,14.49
2018-09-29T00:24:52.560Z,14.45
2018-09-29T00:25:54.348Z,14.43
2018-09-29T00:26:55.024Z,14.56
2018-09-29T00:27:56.808Z,14.53
2018-09-29T00:28:57.596Z,14.45
2018-09-29T00:29:57.936Z,14.43
2018-09-29T00:30:58.279Z,14.43
2018-09-29T00:31:58.511Z,14.59
2018-09-29T00:33:00.159Z,14.56
2018-09-29T00:34:00.392Z,14.52
2018-09-29T00:35:02.012Z,14.7
2018-09-29T00:36:03.086Z,14.67
2018-09-29T00:37:04.904Z,14.44
2018-09-29T00:38:05.524Z,14.49
2018-09-29T00:39:06.583Z,14.4
2018-09-29T00:40:07.380Z,14.44
2018-09-29T00:41:08.611Z,14.45
2018-09-29T00:42:09.956Z,14.37
2018-09-29T00:43:10.742Z,14.19
2018-09-29T00:44:11.080Z,14.13
2018-09-29T00:45:12.422Z,14.05
2018-09-29T00:46:12.484Z,14
2018-09-29T00:47:13.446Z,13.93
2018-09-29T00:48:14.840Z,13.87
2018-09-29T00:49:15.629Z,13.85
2018-09-29T00:50:16.983Z,13.76
2018-09-29T00:51:17.762Z,13.71
2018-09-29T00:52:18.551Z,13.58
2018-09-29T00:53:19.894Z,13.58
2018-09-29T00:54:20.795Z,13.45
2018-09-29T00:55:21.580Z,13.46
2018-09-29T00:56:23.206Z,13.54
2018-09-29T00:57:23.463Z,13.71
2018-09-29T00:58:24.525Z,13.67
2018-09-29T00:59:24.757Z,13.78
2018-09-29T01:00:25.545Z,13.73
2018-09-29T01:01:26.056Z,13.78
2018-09-29T01:02:27.954Z,13.79
2018-09-29T01:03:28.184Z,13.83
2018-09-29T01:04:29.246Z,13.8
2018-09-29T01:05:30.590Z,13.83
2018-09-29T01:06:31.097Z,13.85
2018-09-29T01:07:31.610Z,13.86
2018-09-29T01:08:32.671Z,13.85
2018-09-29T01:09:33.179Z,13.85
2018-09-29T01:10:34.246Z,14
2018-09-29T01:11:35.031Z,13.91
2018-09-29T01:12:35.538Z,14.01
2018-09-29T01:13:36.878Z,14.11
2018-09-29T01:14:37.389Z,14.05
2018-09-29T01:15:38.897Z,14.18
2018-09-29T01:16:40.233Z,14.2
2018-09-29T01:17:41.191Z,14.19
2018-09-29T01:18:41.530Z,14.18
2018-09-29T01:19:42.317Z,14.2
2018-09-29T01:20:42.938Z,14.2
2018-09-29T01:21:43.454Z,14.04
2018-09-29T01:22:44.243Z,14.12
2018-09-29T01:23:45.583Z,14.16
2018-09-29T01:24:46.382Z,14
2018-09-29T01:25:46.721Z,14.01
2018-09-29T01:26:47.782Z,14.04
2018-09-29T01:27:48.594Z,14.08
2018-09-29T01:28:49.383Z,14.12
2018-09-29T01:29:50.169Z,14.16
2018-09-29T01:30:51.514Z,14.13
2018-09-29T01:31:52.590Z,14.22
2018-09-29T01:32:52.378Z,14.11
2018-09-29T01:33:53.438Z,14.15
2018-09-29T01:34:54.235Z,14.15
2018-09-29T01:35:55.302Z,14.12
2018-09-29T01:36:56.364Z,14.15
2018-09-29T01:37:56.882Z,13.95
2018-09-29T01:38:57.949Z,13.98
2018-09-29T01:39:58.734Z,13.98
2018-09-29T01:40:59.243Z,13.91
2018-09-29T01:41:59.754Z,13.87
2018-09-29T01:43:00.541Z,13.83
2018-09-29T01:44:01.053Z,13.86
2018-09-29T01:45:02.398Z,13.93
2018-09-29T01:46:03.181Z,13.71
2018-09-29T01:47:04.246Z,13.82
2018-09-29T01:48:05.210Z,13.82
2018-09-29T01:49:06.833Z,13.86
2018-09-29T01:50:07.899Z,13.75
2018-09-29T01:51:08.683Z,13.87
2018-09-29T01:52:10.195Z,13.85
2018-09-29T01:53:10.979Z,13.86
2018-09-29T01:54:11.500Z,13.86
2018-09-29T01:55:12.558Z,13.54
2018-09-29T01:56:13.067Z,13.21
2018-09-29T01:57:13.856Z,13.39
2018-09-29T01:58:14.544Z,13.23
2018-09-29T01:59:15.332Z,13.13
2018-09-29T02:00:16.572Z,13.01
2018-09-29T02:01:17.359Z,12.94
2018-09-29T02:02:18.423Z,12.94
2018-09-29T02:03:19.491Z,12.88
2018-09-29T02:04:20.275Z,13.09
2018-09-29T02:05:22.064Z,13.13
2018-09-29T02:06:21.851Z,13.09
2018-09-29T02:07:22.643Z,13.01
2018-09-29T02:08:23.785Z,13.02
2018-09-29T02:09:24.572Z,12.86
2018-09-29T02:10:25.080Z,12.83
2018-09-29T02:11:26.139Z,12.91
2018-09-29T02:12:27.923Z,12.87
2018-09-29T02:13:28.430Z,12.8
2018-09-29T02:14:29.492Z,12.83
2018-09-29T02:15:30.001Z,12.69
2018-09-29T02:16:30.787Z,12.8
2018-09-29T02:17:31.851Z,12.78
2018-09-29T02:18:32.815Z,12.66
2018-09-29T02:19:33.322Z,12.57
2018-09-29T02:20:34.113Z,12.68
2018-09-29T02:21:34.626Z,12.66
2018-09-29T02:22:35.132Z,12.66
2018-09-29T02:23:35.642Z,12.61
2018-09-29T02:24:36.977Z,12.62
2018-09-29T02:25:37.759Z,12.5
2018-09-29T02:26:38.100Z,12.54
2018-09-29T02:27:39.611Z,12.57
2018-09-29T02:28:41.649Z,12.57
2018-09-29T02:29:41.976Z,12.61
2018-09-29T02:30:43.149Z,12.58
2018-09-29T02:31:44.212Z,12.73
2018-09-29T02:32:45.106Z,12.86
2018-09-29T02:33:46.169Z,12.72
2018-09-29T02:34:46.955Z,12.65
2018-09-29T02:35:47.571Z,12.63
2018-09-29T02:36:47.909Z,12.69
2018-09-29T02:37:48.974Z,12.66
2018-09-29T02:38:50.046Z,12.63
2018-09-29T02:39:50.670Z,12.66
2018-09-29T02:40:51.014Z,12.7
2018-09-29T02:41:51.652Z,12.62
2018-09-29T02:42:51.991Z,12.86
2018-09-29T02:43:53.055Z,12.81
2018-09-29T02:44:53.127Z,12.86
2018-09-29T02:45:54.190Z,12.81
2018-09-29T02:46:54.703Z,12.8
2018-09-29T02:47:55.324Z,12.66
2018-09-29T02:48:56.865Z,12.68
2018-09-29T02:49:57.935Z,12.63
2018-09-29T02:50:58.557Z,12.53
2018-09-29T02:51:58.897Z,12.66
2018-09-29T02:52:59.522Z,12.62
2018-09-29T02:54:00.591Z,12.65
2018-09-29T02:55:01.955Z,12.43
2018-09-29T02:56:01.757Z,12.55
2018-09-29T02:57:02.542Z,12.3
2018-09-29T02:58:03.605Z,12.44
2018-09-29T02:59:05.234Z,12.3
2018-09-29T03:00:04.739Z,12.28
2018-09-29T03:01:05.805Z,12.18
2018-09-29T03:02:06.310Z,12.08
2018-09-29T03:03:07.372Z,12.08
2018-09-29T03:04:07.998Z,12.08
2018-09-29T03:05:09.627Z,12.08
2018-09-29T03:06:10.409Z,12.05
2018-09-29T03:07:12.342Z,12.02
2018-09-29T03:08:12.638Z,12.08
2018-09-29T03:09:13.565Z,12.15
2018-09-29T03:10:14.908Z,12.18
2018-09-29T03:11:15.412Z,12.12
2018-09-29T03:12:17.208Z,12.26
2018-09-29T03:13:18.552Z,12.26
2018-09-29T03:14:18.337Z,12.2
2018-09-29T03:15:20.242Z,12.32
2018-09-29T03:16:20.301Z,12.37
2018-09-29T03:17:20.929Z,12.29
2018-09-29T03:18:21.265Z,12.37
2018-09-29T03:19:21.993Z,12.29
2018-09-29T03:20:22.450Z,12.29
2018-09-29T03:21:23.509Z,12.33
2018-09-29T03:22:25.419Z,12.33
2018-09-29T03:23:26.084Z,12.37
2018-09-29T03:24:27.163Z,12.53
2018-09-29T03:25:27.502Z,12.51
2018-09-29T03:26:28.287Z,12.58
2018-09-29T03:27:29.356Z,12.54
2018-09-29T03:28:29.867Z,12.44
2018-09-29T03:29:30.956Z,12.37
2018-09-29T03:30:32.020Z,12.35
2018-09-29T03:31:32.419Z,12.23
2018-09-29T03:32:33.115Z,12.29
2018-09-29T03:33:33.455Z,12.18
2018-09-29T03:34:34.794Z,12.07
2018-09-29T03:35:36.418Z,11.99
2018-09-29T03:36:36.777Z,11.95
2018-09-29T03:37:37.567Z,11.91
2018-09-29T03:38:38.203Z,11.96
2018-09-29T03:39:38.993Z,11.91
2018-09-29T03:40:40.500Z,12
2018-09-29T03:41:40.576Z,12.08
2018-09-29T03:42:41.641Z,12.07
2018-09-29T03:43:42.777Z,12.26
2018-09-29T03:44:43.618Z,12.3
2018-09-29T03:45:44.239Z,12.37
2018-09-29T03:46:44.851Z,12.48
2018-09-29T03:47:45.634Z,12.43
2018-09-29T03:48:46.419Z,12.43
2018-09-29T03:49:47.527Z,12.35
2018-09-29T03:50:48.444Z,12.35
2018-09-29T03:51:49.229Z,12.37
2018-09-29T03:52:49.738Z,12.4
2018-09-29T03:53:50.951Z,12.43
2018-09-29T03:54:51.566Z,12.39
2018-09-29T03:55:52.183Z,12.39
2018-09-29T03:56:52.977Z,12.3
2018-09-29T03:57:53.762Z,12.21
2018-09-29T03:58:55.107Z,12.36
2018-09-29T03:59:55.471Z,12.47
2018-09-29T04:00:56.826Z,12.39
2018-09-29T04:01:58.168Z,12.37
2018-09-29T04:02:58.790Z,12.35
2018-09-29T04:03:59.303Z,12.35
2018-09-29T04:05:01.088Z,12.35
2018-09-29T04:06:02.457Z,12.29
2018-09-29T04:07:02.972Z,12.39
2018-09-29T04:08:04.865Z,12.32
2018-09-29T04:09:05.253Z,12.45
2018-09-29T04:10:05.776Z,12.37
2018-09-29T04:11:07.116Z,12.29
2018-09-29T04:12:08.458Z,12.03
2018-09-29T04:13:08.533Z,11.99
2018-09-29T04:14:09.594Z,11.91
2018-09-29T04:15:10.958Z,11.81
2018-09-29T04:16:11.603Z,11.88
2018-09-29T04:17:12.666Z,11.83
2018-09-29T04:18:14.011Z,11.89
2018-09-29T04:19:14.094Z,11.88
2018-09-29T04:20:15.615Z,11.86
2018-09-29T04:21:16.403Z,11.97
2018-09-29T04:22:17.751Z,11.99
2018-09-29T04:23:17.834Z,11.81
2018-09-29T04:24:18.175Z,11.88
2018-09-29T04:25:18.797Z,11.74
2018-09-29T04:26:19.137Z,11.76
2018-09-29T04:27:19.764Z,11.77
2018-09-29T04:28:21.106Z,11.71
2018-09-29T04:29:22.171Z,11.77
2018-09-29T04:30:22.985Z,11.88
2018-09-29T04:31:23.326Z,11.83
2018-09-29T04:32:23.396Z,11.78
2018-09-29T04:33:24.458Z,11.89
2018-09-29T04:34:25.240Z,12.02
2018-09-29T04:35:26.862Z,12.07
2018-09-29T04:36:27.372Z,12.18
2018-09-29T04:37:28.434Z,12.2
2018-09-29T04:38:29.221Z,12.3
2018-09-29T04:39:30.281Z,12.33
2018-09-29T04:40:31.817Z,12.44
2018-09-29T04:41:32.161Z,12.39
2018-09-29T04:42:32.943Z,12.18
2018-09-29T04:43:34.452Z,12.23
2018-09-29T04:44:35.514Z,12.29
2018-09-29T04:45:36.575Z,12.17
2018-09-29T04:46:37.361Z,12.08
2018-09-29T04:47:38.145Z,11.95
2018-09-29T04:48:38.377Z,11.95
2018-09-29T04:49:39.440Z,11.89
2018-09-29T04:50:39.950Z,11.95
2018-09-29T04:51:41.178Z,12.03
2018-09-29T04:52:42.242Z,12.07
2018-09-29T04:53:42.470Z,12.17
2018-09-29T04:54:43.536Z,12.02
2018-09-29T04:55:44.041Z,12.05
2018-09-29T04:56:44.551Z,12.1
2018-09-29T04:57:46.060Z,12.1
2018-09-29T04:58:46.846Z,12.1
2018-09-29T04:59:47.353Z,11.97
2018-09-29T05:00:48.586Z,11.86
2018-09-29T05:01:50.203Z,11.86
2018-09-29T05:02:50.265Z,11.93
2018-09-29T05:03:50.347Z,11.88
2018-09-29T05:04:51.133Z,11.83
2018-09-29T05:05:51.752Z,11.93
2018-09-29T05:06:52.810Z,11.81
2018-09-29T05:07:53.322Z,11.86
2018-09-29T05:08:53.826Z,11.88
2018-09-29T05:09:55.171Z,11.88
2018-09-29T05:10:56.683Z,11.85
2018-09-29T05:11:57.477Z,11.78
2018-09-29T05:13:09.677Z,11.78
2018-09-29T05:14:10.634Z,11.74
2018-09-29T05:15:11.695Z,11.73
2018-09-29T05:16:11.928Z,11.65
2018-09-29T05:17:13.545Z,11.67
2018-09-29T05:18:13.338Z,11.74
2018-09-29T05:19:13.845Z,11.78
2018-09-29T05:20:14.635Z,11.65
2018-09-29T05:21:15.701Z,11.58
2018-09-29T05:22:16.768Z,11.6
2018-09-29T05:23:18.495Z,11.7
2018-09-29T05:24:19.451Z,11.63
2018-09-29T05:25:20.518Z,11.71
2018-09-29T05:26:21.138Z,11.62
2018-09-29T05:27:20.921Z,11.7
2018-09-29T05:28:21.709Z,11.59
2018-09-29T05:29:22.216Z,11.67
2018-09-29T05:30:23.013Z,11.58
2018-09-29T05:31:23.808Z,11.56
2018-09-29T05:32:25.148Z,11.49
2018-09-29T05:33:25.214Z,11.38
2018-09-29T05:34:26.174Z,11.37
2018-09-29T05:35:26.957Z,11.38
2018-09-29T05:36:27.744Z,11.38
2018-09-29T05:37:28.255Z,11.44
2018-09-29T05:38:30.161Z,11.44
2018-09-29T05:39:29.953Z,11.55
2018-09-29T05:40:31.577Z,11.45
2018-09-29T05:41:31.808Z,11.43
2018-09-29T05:42:33.595Z,11.48
2018-09-29T05:43:34.395Z,11.44
2018-09-29T05:44:35.628Z,11.44
2018-09-29T05:45:36.418Z,11.37
2018-09-29T05:46:37.484Z,11.3
2018-09-29T05:47:37.717Z,11.35
2018-09-29T05:48:39.226Z,11.23
2018-09-29T05:49:40.010Z,11.26
2018-09-29T05:50:40.518Z,11.18
2018-09-29T05:51:41.030Z,11.35
2018-09-29T05:52:42.262Z,11.31
2018-09-29T05:53:44.486Z,11.33
2018-09-29T05:54:44.992Z,11.43
2018-09-29T05:55:45.060Z,11.48
2018-09-29T05:56:45.847Z,11.38
2018-09-29T05:57:47.359Z,11.43
2018-09-29T05:58:48.425Z,11.37
2018-09-29T05:59:49.501Z,11.44
2018-09-29T06:00:50.571Z,11.44
2018-09-29T06:01:50.635Z,11.38
2018-09-29T06:02:51.148Z,11.37
2018-09-29T06:03:51.932Z,11.35
2018-09-29T06:04:52.899Z,11.26
2018-09-29T06:05:54.704Z,11.26
2018-09-29T06:06:54.540Z,11.25
2018-09-29T06:07:55.094Z,11.26
2018-09-29T06:08:56.177Z,11.25
2018-09-29T06:09:56.690Z,11.34
2018-09-29T06:10:58.126Z,11.34
2018-09-29T06:11:59.472Z,11.38
2018-09-29T06:13:00.481Z,11.44
2018-09-29T06:13:59.950Z,11.43
2018-09-29T06:15:01.196Z,11.59
2018-09-29T06:16:01.702Z,11.58
2018-09-29T06:17:02.772Z,11.53
2018-09-29T06:18:03.128Z,11.52
2018-09-29T06:19:03.639Z,11.45
2018-09-29T06:20:04.151Z,11.41
2018-09-29T06:21:05.656Z,11.35
2018-09-29T06:22:06.005Z,11.33
2018-09-29T06:23:07.069Z,11.4
2018-09-29T06:24:07.862Z,11.35
2018-09-29T06:25:09.099Z,11.35
2018-09-29T06:26:09.887Z,11.41
2018-09-29T06:27:10.686Z,11.43
2018-09-29T06:28:11.197Z,11.44
2018-09-29T06:29:12.260Z,11.44
2018-09-29T06:30:13.603Z,11.43
2018-09-29T06:31:14.114Z,11.48
2018-09-29T06:32:15.459Z,11.58
2018-09-29T06:33:16.528Z,11.56
2018-09-29T06:34:17.271Z,11.67
2018-09-29T06:35:18.351Z,11.73
2018-09-29T06:36:19.417Z,11.76
2018-09-29T06:37:20.319Z,11.56
2018-09-29T06:38:21.267Z,11.6
2018-09-29T06:39:22.199Z,11.56
2018-09-29T06:40:22.542Z,11.45
2018-09-29T06:41:23.101Z,11.44
2018-09-29T06:42:23.465Z,11.44
2018-09-29T06:43:24.531Z,11.48
2018-09-29T06:44:25.336Z,11.41
2018-09-29T06:45:26.850Z,11.49
2018-09-29T06:46:28.196Z,11.43
2018-09-29T06:47:28.267Z,11.48
2018-09-29T06:48:28.778Z,11.59
2018-09-29T06:49:29.846Z,11.56
2018-09-29T06:50:30.470Z,11.65
2018-09-29T06:51:31.098Z,11.55
2018-09-29T06:52:32.164Z,11.59
2018-09-29T06:53:32.675Z,11.6
2018-09-29T06:54:34.280Z,11.68
2018-09-29T06:55:34.725Z,11.71
2018-09-29T06:56:36.065Z,11.67
2018-09-29T06:57:36.129Z,11.63
2018-09-29T06:58:36.751Z,11.58
2018-09-29T06:59:36.817Z,11.53
2018-09-29T07:00:37.459Z,11.53
2018-09-29T07:01:38.524Z,11.52
2018-09-29T07:02:39.591Z,11.48
2018-09-29T07:03:40.375Z,11.43
2018-09-29T07:04:42.172Z,11.41
2018-09-29T07:05:42.990Z,11.34
2018-09-29T07:06:44.058Z,11.41
2018-09-29T07:07:44.569Z,11.37
2018-09-29T07:08:45.634Z,11.44
2018-09-29T07:09:45.866Z,11.44
2018-09-29T07:10:46.930Z,11.56
2018-09-29T07:11:47.158Z,11.55
2018-09-29T07:12:48.974Z,11.56
2018-09-29T07:13:49.445Z,11.41
2018-09-29T07:14:50.076Z,11.41
2018-09-29T07:15:50.315Z,11.45
2018-09-29T07:16:50.944Z,11.51
2018-09-29T07:17:52.006Z,11.49
2018-09-29T07:18:52.514Z,11.59
2018-09-29T07:19:53.748Z,11.65
2018-09-29T07:20:54.562Z,11.73
2018-09-29T07:21:55.769Z,11.73
2018-09-29T07:22:56.366Z,11.62
2018-09-29T07:23:57.428Z,11.74
2018-09-29T07:24:58.213Z,11.74
2018-09-29T07:25:58.346Z,11.8
2018-09-29T07:26:59.155Z,11.65
2018-09-29T07:27:59.663Z,11.62
2018-09-29T07:29:00.172Z,11.7
2018-09-29T07:30:01.238Z,11.78
2018-09-29T07:31:02.605Z,11.78
2018-09-29T07:32:03.954Z,11.71
2018-09-29T07:33:04.471Z,11.81
2018-09-29T07:34:05.260Z,11.83
2018-09-29T07:35:06.051Z,11.8
2018-09-29T07:36:06.734Z,11.85
2018-09-29T07:37:07.247Z,11.95
2018-09-29T07:38:07.763Z,11.86
2018-09-29T07:39:08.276Z,11.96
2018-09-29T07:40:09.343Z,11.85
2018-09-29T07:41:10.408Z,11.91
2018-09-29T07:42:12.033Z,11.91
2018-09-29T07:43:12.390Z,11.8
2018-09-29T07:44:12.624Z,11.81
2018-09-29T07:45:13.413Z,11.73
2018-09-29T07:46:14.229Z,11.76
2018-09-29T07:47:14.859Z,11.95
2018-09-29T07:48:15.929Z,12.07
2018-09-29T07:49:17.152Z,12.2
2018-09-29T07:50:17.551Z,12.23
2018-09-29T07:51:18.467Z,12.2
2018-09-29T07:52:18.984Z,12.14
2018-09-29T07:53:19.777Z,12.29
2018-09-29T07:54:20.842Z,12.33
2018-09-29T07:55:20.633Z,12.23
2018-09-29T07:56:21.276Z,12.15
2018-09-29T07:57:22.345Z,12.1
2018-09-29T07:58:22.577Z,12
2018-09-29T07:59:23.670Z,11.86
2018-09-29T08:00:24.658Z,11.88
2018-09-29T08:01:25.914Z,11.85
2018-09-29T08:02:26.381Z,11.91
2018-09-29T08:03:26.827Z,11.8
2018-09-29T08:04:28.174Z,11.76
2018-09-29T08:05:29.412Z,11.71
2018-09-29T08:06:32.263Z,11.76
2018-09-29T08:07:32.367Z,11.68
2018-09-29T08:08:32.601Z,11.68
2018-09-29T08:09:33.114Z,11.71
2018-09-29T08:10:34.459Z,11.73
2018-09-29T08:11:35.529Z,11.81
2018-09-29T08:12:36.597Z,11.78
2018-09-29T08:13:37.394Z,11.89
2018-09-29T08:14:38.455Z,11.8
2018-09-29T08:15:39.248Z,11.73
2018-09-29T08:16:40.216Z,12
2018-09-29T08:17:41.280Z,12.3
2018-09-29T08:18:42.353Z,12.33
2018-09-29T08:19:42.865Z,12.57
2018-09-29T08:20:43.379Z,12.8
2018-09-29T08:21:44.169Z,13.12
2018-09-29T08:22:44.682Z,13.23
2018-09-29T08:23:45.749Z,13.36
2018-09-29T08:24:47.092Z,13.54
2018-09-29T08:25:47.884Z,13.87
2018-09-29T08:26:49.021Z,14.03
2018-09-29T08:27:49.092Z,14.15
2018-09-29T08:28:50.438Z,14.22
2018-09-29T08:29:50.507Z,14.05
2018-09-29T08:30:51.577Z,13.79
2018-09-29T08:31:52.644Z,13.54
2018-09-29T08:32:53.160Z,13.45
2018-09-29T08:33:54.675Z,13.4
2018-09-29T08:34:55.023Z,13.55
2018-09-29T08:35:56.091Z,13.67
2018-09-29T08:36:57.332Z,13.55
2018-09-29T08:37:58.171Z,13.21
2018-09-29T08:38:58.966Z,13.16
2018-09-29T08:40:00.308Z,13.2
2018-09-29T08:41:00.103Z,13.08
2018-09-29T08:42:00.899Z,13.28
2018-09-29T08:43:01.970Z,13.68
2018-09-29T08:44:02.757Z,13.75
2018-09-29T08:45:03.552Z,13.85
2018-09-29T08:46:03.912Z,13.76
2018-09-29T08:47:05.182Z,14.07
2018-09-29T08:48:06.331Z,13.83
2018-09-29T08:49:07.121Z,13.68
2018-09-29T08:50:07.912Z,13.37
2018-09-29T08:51:08.703Z,13.33
2018-09-29T08:52:09.492Z,13.13
2018-09-29T08:53:11.524Z,13.19
2018-09-29T08:54:12.189Z,13.28
2018-09-29T08:55:13.255Z,13.24
2018-09-29T08:56:13.767Z,13.21
2018-09-29T08:57:14.764Z,13.4
2018-09-29T08:58:15.270Z,13.36
2018-09-29T08:59:16.336Z,13.54
2018-09-29T09:00:17.848Z,13.55
2018-09-29T09:01:18.637Z,13.64
2018-09-29T09:02:19.430Z,13.57
2018-09-29T09:03:19.969Z,13.6
2018-09-29T09:04:21.031Z,13.73
2018-09-29T09:05:21.823Z,13.86
2018-09-29T09:06:22.616Z,14.18
2018-09-29T09:07:23.861Z,14.33
2018-09-29T09:08:24.374Z,14.4
2018-09-29T09:09:26.219Z,14.51
2018-09-29T09:10:26.827Z,14.36
2018-09-29T09:11:28.184Z,14.25
2018-09-29T09:12:28.252Z,14.37
2018-09-29T09:13:29.090Z,14.44
2018-09-29T09:14:30.164Z,14.58
2018-09-29T09:15:31.229Z,14.58
2018-09-29T09:16:32.022Z,14.59
2018-09-29T09:17:33.547Z,14.71
2018-09-29T09:18:34.666Z,14.58
2018-09-29T09:19:35.456Z,14.55
2018-09-29T09:20:35.971Z,14.33
2018-09-29T09:21:36.765Z,14.48
2018-09-29T09:22:38.113Z,14.56
2018-09-29T09:23:39.536Z,14.73
2018-09-29T09:24:40.257Z,14.85
2018-09-29T09:25:41.324Z,14.9
2018-09-29T09:26:42.678Z,14.78
2018-09-29T09:27:44.070Z,15.02
2018-09-29T09:28:43.861Z,15.15
2018-09-29T09:29:46.512Z,15.08
2018-09-29T09:30:46.697Z,15.14
2018-09-29T09:31:47.767Z,15.17
2018-09-29T09:32:47.840Z,15.1
2018-09-29T09:33:48.909Z,15.07
2018-09-29T09:34:48.980Z,15.07
2018-09-29T09:35:49.490Z,14.96
2018-09-29T09:36:51.286Z,15.05
2018-09-29T09:37:52.247Z,15.07
2018-09-29T09:38:53.037Z,15.19
2018-09-29T09:39:53.553Z,15.08
2018-09-29T09:40:54.903Z,14.92
2018-09-29T09:41:55.253Z,15.04
2018-09-29T09:42:56.043Z,14.85
2018-09-29T09:43:56.835Z,14.85
2018-09-29T09:44:57.904Z,14.61
2018-09-29T09:45:58.984Z,14.74
2018-09-29T09:47:00.612Z,14.78
2018-09-29T09:48:01.164Z,14.81
2018-09-29T09:49:02.219Z,15.23
2018-09-29T09:50:03.571Z,15.17
2018-09-29T09:51:04.358Z,15.18
2018-09-29T09:52:04.869Z,14.94
2018-09-29T09:53:05.662Z,14.93
2018-09-29T09:54:07.012Z,14.99
2018-09-29T09:55:07.363Z,15.04
2018-09-29T09:56:08.985Z,15.3
2018-09-29T09:57:08.998Z,15.39
2018-09-29T09:58:10.260Z,15.3
2018-09-29T09:59:10.890Z,15.26
2018-09-29T10:00:11.965Z,15.11
2018-09-29T10:01:12.312Z,15.02
2018-09-29T10:02:12.658Z,14.97
2018-09-29T10:03:13.451Z,15.02
2018-09-29T10:04:14.528Z,14.87
2018-09-29T10:05:15.040Z,14.78
2018-09-29T10:06:15.671Z,14.51
2018-09-29T10:07:17.065Z,14.36
2018-09-29T10:08:18.165Z,14.49
2018-09-29T10:09:18.963Z,14.37
2018-09-29T10:10:20.593Z,14.43
2018-09-29T10:11:21.107Z,14.55
2018-09-29T10:12:21.900Z,14.53
2018-09-29T10:13:23.254Z,14.68
2018-09-29T10:14:22.772Z,14.73
2018-09-29T10:15:23.845Z,14.7
2018-09-29T10:16:25.080Z,14.81
2018-09-29T10:17:27.401Z,14.87
2018-09-29T10:18:28.371Z,14.86
2018-09-29T10:19:28.442Z,14.87
2018-09-29T10:20:29.677Z,14.59
2018-09-29T10:21:30.483Z,14.67
2018-09-29T10:22:31.134Z,14.56
2018-09-29T10:23:31.482Z,14.67
2018-09-29T10:24:32.597Z,14.7
2018-09-29T10:25:33.385Z,14.92
2018-09-29T10:26:34.175Z,14.78
2018-09-29T10:27:35.284Z,14.99
2018-09-29T10:28:35.891Z,14.97
2018-09-29T10:29:36.685Z,15.02
2018-09-29T10:30:38.719Z,15.1
2018-09-29T10:31:38.714Z,14.86
2018-09-29T10:32:39.506Z,14.99
2018-09-29T10:33:40.319Z,15
2018-09-29T10:34:40.838Z,15.17
2018-09-29T10:35:41.631Z,15.18
2018-09-29T10:36:43.266Z,15.32
2018-09-29T10:37:43.330Z,15.23
2018-09-29T10:38:43.580Z,15.3
2018-09-29T10:39:44.372Z,15.32
2018-09-29T10:40:45.164Z,15.15
2018-09-29T10:41:45.954Z,15.25
2018-09-29T10:42:47.578Z,15.1
2018-09-29T10:43:47.928Z,15.11
2018-09-29T10:44:47.999Z,15.14
2018-09-29T10:45:49.230Z,15.12
2018-09-29T10:46:50.022Z,15.08
2018-09-29T10:47:50.542Z,15.04
2018-09-29T10:48:51.364Z,15.22
2018-09-29T10:49:51.707Z,15.05
2018-09-29T10:50:52.778Z,15.1
2018-09-29T10:51:53.846Z,15.12
2018-09-29T10:52:55.558Z,15.3
2018-09-29T10:53:55.857Z,15.3
2018-09-29T10:54:57.212Z,15.33
2018-09-29T10:55:58.006Z,15.37
2018-09-29T10:56:58.800Z,15.51
2018-09-29T10:57:59.034Z,15.63
2018-09-29T10:59:00.688Z,15.69
2018-09-29T11:00:01.395Z,15.37
2018-09-29T11:01:02.187Z,15.32
2018-09-29T11:02:03.592Z,15.41
2018-09-29T11:03:03.696Z,15.43
2018-09-29T11:04:04.451Z,15.54
2018-09-29T11:05:06.066Z,15.5
2018-09-29T11:06:06.188Z,15.55
2018-09-29T11:07:07.295Z,15.54
2018-09-29T11:08:08.089Z,15.59
2018-09-29T11:09:09.608Z,15.48
2018-09-29T11:10:10.120Z,15.35
2018-09-29T11:11:11.468Z,15.14
2018-09-29T11:12:11.705Z,15.17
2018-09-29T11:13:13.220Z,15.26
2018-09-29T11:14:14.559Z,15.22
2018-09-29T11:15:15.681Z,15.33
2018-09-29T11:16:15.752Z,15.33
2018-09-29T11:17:15.994Z,15.26
2018-09-29T11:18:16.800Z,15.17
2018-09-29T11:19:17.506Z,15.02
2018-09-29T11:20:18.965Z,15.02
2018-09-29T11:21:19.825Z,15.04
2018-09-29T11:22:20.280Z,14.96
2018-09-29T11:23:21.279Z,14.96
2018-09-29T11:24:22.085Z,14.97
2018-09-29T11:25:23.159Z,14.93
2018-09-29T11:26:23.952Z,14.86
2018-09-29T11:27:25.024Z,14.74
2018-09-29T11:28:26.253Z,14.71
2018-09-29T11:29:27.219Z,14.77
2018-09-29T11:30:28.019Z,14.73
2018-09-29T11:31:28.258Z,14.78
2018-09-29T11:32:29.627Z,14.81
2018-09-29T11:33:30.987Z,14.99
2018-09-29T11:34:32.055Z,14.73
2018-09-29T11:35:32.570Z,14.77
2018-09-29T11:36:33.640Z,14.66
2018-09-29T11:37:35.187Z,14.53
2018-09-29T11:38:35.702Z,14.48
2018-09-29T11:39:36.025Z,14.49
2018-09-29T11:40:37.737Z,14.44
2018-09-29T11:41:38.237Z,14.48
2018-09-29T11:42:39.862Z,14.49
2018-09-29T11:43:40.931Z,14.56
2018-09-29T11:44:41.459Z,14.52
2018-09-29T11:45:42.457Z,14.74
2018-09-29T11:46:43.244Z,14.78
2018-09-29T11:47:43.754Z,14.93
2018-09-29T11:48:44.275Z,15.02
2018-09-29T11:49:45.798Z,14.99
2018-09-29T11:50:46.315Z,14.96
2018-09-29T11:51:47.385Z,14.9
2018-09-29T11:52:47.900Z,14.87
2018-09-29T11:53:48.687Z,15.02
2018-09-29T11:54:49.925Z,15.04
2018-09-29T11:55:51.716Z,15.05
2018-09-29T11:56:52.307Z,15.05
2018-09-29T11:57:53.399Z,15.04
2018-09-29T11:58:54.898Z,14.99
2018-09-29T11:59:54.889Z,14.96
2018-09-29T12:00:55.681Z,14.89
2018-09-29T12:01:57.220Z,14.96
2018-09-29T12:02:57.627Z,15.04
2018-09-29T12:03:58.420Z,15.05
2018-09-29T12:04:59.767Z,14.89
2018-09-29T12:06:00.747Z,14.93
2018-09-29T12:07:01.779Z,15.11
2018-09-29T12:08:02.842Z,15.15
2018-09-29T12:09:02.523Z,15.15
2018-09-29T12:10:04.039Z,15.05
2018-09-29T12:11:05.393Z,15.07
2018-09-29T12:12:05.185Z,15.17
2018-09-29T12:13:05.983Z,15.18
2018-09-29T12:14:07.053Z,15.23
2018-09-29T12:15:07.128Z,15.14
2018-09-29T12:16:08.203Z,15.12
2018-09-29T12:17:08.998Z,15.19
2018-09-29T12:18:10.065Z,15.14
2018-09-29T12:19:10.582Z,15.02
2018-09-29T12:20:11.832Z,15.11
2018-09-29T12:21:13.590Z,15.12
2018-09-29T12:22:13.494Z,15.11
2018-09-29T12:23:14.896Z,15.18
2018-09-29T12:24:15.965Z,15.23
2018-09-29T12:25:16.757Z,15.26
2018-09-29T12:26:17.830Z,15.32
2018-09-29T12:27:18.624Z,15.43
2018-09-29T12:27:30.617Z,15.43
2018-09-29T12:28:32.153Z,15.43
2018-09-29T12:29:33.117Z,15.3
2018-09-29T12:30:33.108Z,15.44
2018-09-29T12:31:34.178Z,15.37
2018-09-29T12:32:34.528Z,15.35
2018-09-29T12:33:35.062Z,15.33
2018-09-29T12:34:35.604Z,15.22
2018-09-29T12:35:35.670Z,15.11
2018-09-29T12:36:36.469Z,15.17
2018-09-29T12:37:38.191Z,15.04
2018-09-29T12:38:37.903Z,14.97
2018-09-29T12:39:38.971Z,14.96
2018-09-29T12:40:41.883Z,15.05
2018-09-29T12:41:41.532Z,15.11
2018-09-29T12:42:43.440Z,15.02
2018-09-29T12:43:43.936Z,15.1
2018-09-29T12:44:45.097Z,15.18
2018-09-29T12:45:45.601Z,15.18
2018-09-29T12:46:46.128Z,15.12
2018-09-29T12:47:46.920Z,15.14
2018-09-29T12:48:47.445Z,15.12
2018-09-29T12:49:48.234Z,15.07
2018-09-29T12:50:49.320Z,15.11
2018-09-29T12:51:50.615Z,15.1
2018-09-29T12:52:50.976Z,15.17
2018-09-29T12:53:52.605Z,15.25
2018-09-29T12:54:53.123Z,15.37
2018-09-29T12:55:53.524Z,15.43
2018-09-29T12:56:54.596Z,15.5
2018-09-29T12:57:54.833Z,15.44
2018-09-29T12:58:56.058Z,15.33
2018-09-29T12:59:56.486Z,15.27
2018-09-29T13:00:57.833Z,15.15
2018-09-29T13:01:59.180Z,15.18
2018-09-29T13:02:59.969Z,15.33
2018-09-29T13:04:01.319Z,15.3
2018-09-29T13:05:02.214Z,15.32
2018-09-29T13:06:02.709Z,15.39